Time;durP1;ratioP1;P1;durP2;ratioP2;P2;SDS_P1;SDS_P2;PMS_P1;PMS_P2;Temp;Humidity;BMP_temperature;BMP_pressure;BME280_temperature;BME280_humidity;BME280_pressure;Samples;Min_cycle;Max_cycle;Signal;HPM_P1;HPM_P2
2021/09/30 00:00:53;;;;;;;8.70;1.40;;;;;;;;;;5087882;28;20449;-84
2021/09/30 00:03:21;;;;;;;9.20;1.50;;;;;;;;;;5094732;28;20824;-85
2021/09/30 00:05:48;;;;;;;11.57;1.67;;;;;;;;;;5075736;28;20496;-85
2021/09/30 00:08:15;;;;;;;10.10;1.57;;;;;;;;;;5093946;28;20984;-84
2021/09/30 00:10:49;;;;;;;8.53;1.60;;;;;;;;;;5095073;28;20479;-85
2021/09/30 00:13:33;;;;;;;9.33;1.63;;;;;;;;;;5086872;28;20464;-83
2021/09/30 00:16:21;;;;;;;10.80;2.00;;;;;;;;;;5086818;28;20491;-85
2021/09/30 00:32:45;;;;;;;8.60;1.63;;;;;;;;;;5092061;28;20505;-86
2021/09/30 00:35:26;;;;;;;9.10;1.50;;;;;;;;;;5090172;28;20483;-85
2021/09/30 00:40:52;;;;;;;11.40;1.80;;;;;;;;;;5083645;28;20445;-85
2021/09/30 00:46:03;;;;;;;9.73;2.07;;;;;;;;;;5045941;28;20592;-84
2021/09/30 00:51:28;;;;;;;11.20;2.60;;;;;;;;;;5078634;28;20449;-85
2021/09/30 00:54:25;;;;;;;9.33;2.10;;;;;;;;;;5075602;28;20446;-85
2021/09/30 01:40:24;;;;;;;10.40;2.33;;;;;;;;;;5087932;28;20518;-85
2021/09/30 02:29:29;;;;;;;10.73;2.07;;;;;;;;;;5050802;28;20469;-85
2021/09/30 02:59:53;;;;;;;8.40;1.50;;;;;;;;;;5077491;28;20587;-85
2021/09/30 03:02:20;;;;;;;12.37;2.13;;;;;;;;;;5075709;28;20449;-85
2021/09/30 03:04:48;;;;;;;8.93;1.70;;;;;;;;;;5077060;28;20489;-84
2021/09/30 03:07:18;;;;;;;9.10;1.50;;;;;;;;;;5081021;28;20499;-85
2021/09/30 03:09:46;;;;;;;10.40;2.13;;;;;;;;;;5075633;28;20907;-85
2021/09/30 03:12:21;;;;;;;12.03;1.97;;;;;;;;;;5080306;28;20461;-84
2021/09/30 03:14:59;;;;;;;9.93;1.73;;;;;;;;;;5086247;28;20456;-85
2021/09/30 03:17:31;;;;;;;12.63;2.80;;;;;;;;;;5075898;28;20464;-84
2021/09/30 03:20:03;;;;;;;10.00;2.40;;;;;;;;;;5087973;28;20499;-84
2021/09/30 03:22:32;;;;;;;12.83;2.10;;;;;;;;;;5073767;28;20462;-82
2021/09/30 03:24:59;;;;;;;11.43;1.90;;;;;;;;;;5076452;28;20458;-83
2021/09/30 03:27:27;;;;;;;14.07;1.87;;;;;;;;;;5078218;28;20445;-83
2021/09/30 03:29:54;;;;;;;9.77;1.80;;;;;;;;;;5094835;28;21208;-85
2021/09/30 03:32:21;;;;;;;13.47;2.03;;;;;;;;;;5081159;28;20448;-85
2021/09/30 03:34:49;;;;;;;13.73;2.20;;;;;;;;;;5076221;28;20461;-84
2021/09/30 03:37:16;;;;;;;9.50;2.07;;;;;;;;;;5092982;28;20444;-85
2021/09/30 03:39:44;;;;;;;12.20;2.20;;;;;;;;;;5093735;28;20472;-85
2021/09/30 03:42:11;;;;;;;10.10;2.13;;;;;;;;;;5077046;28;20451;-83
2021/09/30 03:44:39;;;;;;;15.40;2.10;;;;;;;;;;5075995;28;20741;-84
2021/09/30 03:47:06;;;;;;;11.17;2.50;;;;;;;;;;5078715;28;20483;-83
2021/09/30 03:49:34;;;;;;;10.27;2.37;;;;;;;;;;5093134;28;20503;-85
2021/09/30 03:52:06;;;;;;;12.23;2.13;;;;;;;;;;5091128;28;20465;-85
2021/09/30 03:54:39;;;;;;;11.70;2.20;;;;;;;;;;5093353;28;20547;-85
2021/09/30 03:57:21;;;;;;;8.70;2.07;;;;;;;;;;5076714;28;20826;-85
2021/09/30 03:59:47;;;;;;;15.37;2.73;;;;;;;;;;5074888;28;20485;-84
2021/09/30 04:02:14;;;;;;;11.67;2.60;;;;;;;;;;5088331;28;20452;-84
2021/09/30 04:04:41;;;;;;;10.40;2.60;;;;;;;;;;5093987;28;21017;-85
2021/09/30 04:07:09;;;;;;;11.67;2.50;;;;;;;;;;5074057;28;20475;-85
2021/09/30 04:09:37;;;;;;;12.37;2.60;;;;;;;;;;5073079;28;20470;-84
2021/09/30 04:12:05;;;;;;;11.80;2.13;;;;;;;;;;5079999;28;20454;-84
2021/09/30 04:14:34;;;;;;;11.67;2.63;;;;;;;;;;5073355;28;20488;-85
2021/09/30 04:17:02;;;;;;;16.07;2.57;;;;;;;;;;5087448;28;20886;-85
2021/09/30 04:19:29;;;;;;;11.80;2.60;;;;;;;;;;5089145;28;20475;-84
2021/09/30 04:21:56;;;;;;;11.80;2.30;;;;;;;;;;5091170;28;21107;-85
2021/09/30 04:24:24;;;;;;;13.60;2.47;;;;;;;;;;5093132;28;20452;-83
2021/09/30 04:26:52;;;;;;;12.20;2.13;;;;;;;;;;5083865;28;20493;-84
2021/09/30 04:29:19;;;;;;;11.03;2.90;;;;;;;;;;5097175;22;20587;-85
2021/09/30 04:31:48;;;;;;;9.07;2.07;;;;;;;;;;5092076;28;20979;-85
2021/09/30 04:34:15;;;;;;;13.43;2.43;;;;;;;;;;5091953;28;20457;-84
2021/09/30 04:36:42;;;;;;;11.10;2.87;;;;;;;;;;5091993;28;20451;-85
2021/09/30 04:39:10;;;;;;;9.43;2.13;;;;;;;;;;5082104;28;21131;-85
2021/09/30 04:41:37;;;;;;;12.83;2.93;;;;;;;;;;5067537;28;20916;-85
2021/09/30 04:44:05;;;;;;;12.40;2.50;;;;;;;;;;5065125;28;20447;-84
2021/09/30 04:46:32;;;;;;;11.90;2.27;;;;;;;;;;5068536;28;20480;-85
2021/09/30 04:49:00;;;;;;;11.50;2.27;;;;;;;;;;5072608;28;20500;-84
2021/09/30 04:51:27;;;;;;;10.47;2.77;;;;;;;;;;5071402;28;20457;-84
2021/09/30 04:53:55;;;;;;;10.47;2.60;;;;;;;;;;5070663;28;20447;-83
2021/09/30 04:56:22;;;;;;;12.23;2.80;;;;;;;;;;5070827;28;20460;-84
2021/09/30 04:58:49;;;;;;;10.97;2.30;;;;;;;;;;5074775;28;20472;-84
2021/09/30 05:01:16;;;;;;;11.20;2.10;;;;;;;;;;5075443;28;20544;-84
2021/09/30 05:03:44;;;;;;;12.13;2.33;;;;;;;;;;5074843;28;20464;-84
2021/09/30 05:06:13;;;;;;;12.90;1.90;;;;;;;;;;5073971;28;20481;-83
2021/09/30 05:08:44;;;;;;;12.17;2.37;;;;;;;;;;5071727;28;20469;-84
2021/09/30 05:11:11;;;;;;;16.53;2.93;;;;;;;;;;5071707;28;20513;-85
2021/09/30 05:13:38;;;;;;;11.30;2.30;;;;;;;;;;5063855;28;20454;-86
2021/09/30 05:16:06;;;;;;;11.30;2.57;;;;;;;;;;5075012;28;20453;-85
2021/09/30 05:18:33;;;;;;;12.00;2.07;;;;;;;;;;5079631;28;20480;-85
2021/09/30 05:21:01;;;;;;;12.70;2.30;;;;;;;;;;5079702;28;20628;-86
2021/09/30 05:23:29;;;;;;;14.07;2.70;;;;;;;;;;5080520;28;20459;-85
2021/09/30 05:25:56;;;;;;;12.30;2.40;;;;;;;;;;5080042;28;20449;-85
2021/09/30 05:28:23;;;;;;;13.80;2.70;;;;;;;;;;5070713;28;20465;-85
2021/09/30 05:30:50;;;;;;;13.50;2.73;;;;;;;;;;5079147;28;20441;-86
2021/09/30 05:33:19;;;;;;;10.87;1.80;;;;;;;;;;5078030;28;20456;-85
2021/09/30 05:35:47;;;;;;;12.40;3.00;;;;;;;;;;5086874;28;20459;-83
2021/09/30 05:38:14;;;;;;;10.17;2.00;;;;;;;;;;5078334;28;20474;-85
2021/09/30 05:40:47;;;;;;;13.53;2.37;;;;;;;;;;5063581;28;20825;-85
2021/09/30 05:43:19;;;;;;;9.47;2.27;;;;;;;;;;5058347;28;20455;-84
2021/09/30 05:45:52;;;;;;;16.27;2.60;;;;;;;;;;5067603;28;20455;-83
2021/09/30 05:48:19;;;;;;;15.90;2.80;;;;;;;;;;5065261;28;20472;-84
2021/09/30 05:50:46;;;;;;;12.07;2.00;;;;;;;;;;5073732;28;20461;-84
2021/09/30 05:53:13;;;;;;;12.07;2.40;;;;;;;;;;5063183;28;20462;-84
2021/09/30 05:55:40;;;;;;;14.93;2.83;;;;;;;;;;5060975;28;20446;-84
2021/09/30 05:58:09;;;;;;;15.93;2.97;;;;;;;;;;5071412;28;20461;-84
2021/09/30 06:00:43;;;;;;;15.93;3.00;;;;;;;;;;5071758;28;20454;-84
2021/09/30 06:11:20;;;;;;;12.60;2.30;;;;;;;;;;5068400;28;20438;-85
2021/09/30 06:13:52;;;;;;;14.03;2.70;;;;;;;;;;5063737;28;20536;-85
2021/09/30 06:16:21;;;;;;;13.67;2.30;;;;;;;;;;5071220;28;20460;-84
2021/09/30 06:18:49;;;;;;;12.93;2.50;;;;;;;;;;5064802;28;20483;-85
2021/09/30 06:21:16;;;;;;;12.80;2.23;;;;;;;;;;5062320;28;20454;-86
2021/09/30 06:23:43;;;;;;;12.33;2.67;;;;;;;;;;5061035;28;20460;-85
2021/09/30 06:26:10;;;;;;;13.80;3.00;;;;;;;;;;5055271;28;20444;-84
2021/09/30 06:28:37;;;;;;;13.07;2.60;;;;;;;;;;5055688;28;20909;-85
2021/09/30 06:31:06;;;;;;;11.53;1.97;;;;;;;;;;5056751;28;20446;-86
2021/09/30 06:33:33;;;;;;;13.97;2.37;;;;;;;;;;5057648;28;20463;-85
2021/09/30 06:36:00;;;;;;;14.03;2.50;;;;;;;;;;5054742;28;20461;-85
2021/09/30 06:38:27;;;;;;;20.33;3.00;;;;;;;;;;5057815;28;20477;-86
2021/09/30 06:40:54;;;;;;;13.90;2.50;;;;;;;;;;5063871;28;20536;-85
2021/09/30 06:43:21;;;;;;;11.43;2.33;;;;;;;;;;5061104;28;20454;-85
2021/09/30 06:45:50;;;;;;;16.23;3.23;;;;;;;;;;5061735;28;20444;-86
2021/09/30 06:48:19;;;;;;;10.77;2.17;;;;;;;;;;5057504;28;20500;-86
2021/09/30 06:50:47;;;;;;;17.13;2.63;;;;;;;;;;5058890;28;20481;-86
2021/09/30 06:53:14;;;;;;;14.50;2.40;;;;;;;;;;5057507;28;20480;-86
2021/09/30 06:55:42;;;;;;;15.07;2.57;;;;;;;;;;5057574;28;20457;-86
2021/09/30 06:58:10;;;;;;;14.87;2.90;;;;;;;;;;5055075;28;20453;-86
2021/09/30 07:00:37;;;;;;;15.47;3.10;;;;;;;;;;5058839;28;20490;-86
2021/09/30 07:03:05;;;;;;;18.87;3.17;;;;;;;;;;5060118;28;20514;-86
2021/09/30 07:05:33;;;;;;;17.63;2.77;;;;;;;;;;5078697;28;20460;-86
2021/09/30 07:08:01;;;;;;;11.43;2.40;;;;;;;;;;5079348;28;20864;-86
2021/09/30 07:10:29;;;;;;;11.03;2.60;;;;;;;;;;5079465;28;20498;-87
2021/09/30 07:12:56;;;;;;;11.07;2.70;;;;;;;;;;5074451;28;20952;-86
2021/09/30 07:15:23;;;;;;;14.23;2.07;;;;;;;;;;5055797;28;20459;-86
2021/09/30 07:17:50;;;;;;;16.17;2.60;;;;;;;;;;5058924;28;20455;-85
2021/09/30 07:20:17;;;;;;;15.03;2.60;;;;;;;;;;5057695;28;20473;-86
2021/09/30 07:22:46;;;;;;;10.70;2.37;;;;;;;;;;5059039;28;20990;-86
2021/09/30 07:25:13;;;;;;;11.43;2.03;;;;;;;;;;5076778;28;20454;-86
2021/09/30 07:27:40;;;;;;;13.83;3.00;;;;;;;;;;5077779;28;20490;-86
2021/09/30 07:30:08;;;;;;;11.47;2.40;;;;;;;;;;5076278;28;20481;-86
2021/09/30 07:32:35;;;;;;;14.97;2.90;;;;;;;;;;5076744;28;20458;-85
2021/09/30 07:35:02;;;;;;;11.03;2.00;;;;;;;;;;5089690;28;20435;-86
2021/09/30 07:37:29;;;;;;;12.90;2.10;;;;;;;;;;5084057;28;20452;-86
2021/09/30 07:39:58;;;;;;;14.13;2.47;;;;;;;;;;5076634;28;21032;-86
2021/09/30 07:42:25;;;;;;;14.77;2.03;;;;;;;;;;5075423;28;20450;-85
2021/09/30 07:44:52;;;;;;;16.00;3.20;;;;;;;;;;5076433;28;20451;-85
2021/09/30 07:47:19;;;;;;;11.27;2.43;;;;;;;;;;5075162;28;20496;-85
2021/09/30 07:49:46;;;;;;;11.50;2.80;;;;;;;;;;5075504;28;20474;-86
2021/09/30 07:52:13;;;;;;;11.40;2.10;;;;;;;;;;5073051;28;20469;-86
2021/09/30 07:54:41;;;;;;;11.80;2.80;;;;;;;;;;5063950;28;20453;-86
2021/09/30 07:57:10;;;;;;;11.43;2.10;;;;;;;;;;5073424;28;20467;-86
2021/09/30 07:59:38;;;;;;;12.57;2.83;;;;;;;;;;5074459;28;20475;-86
2021/09/30 08:02:05;;;;;;;12.60;2.70;;;;;;;;;;5074122;28;20458;-86
2021/09/30 08:04:32;;;;;;;12.47;2.03;;;;;;;;;;5073316;28;20456;-86
2021/09/30 08:07:01;;;;;;;14.57;2.33;;;;;;;;;;5073490;28;20481;-86
2021/09/30 08:09:28;;;;;;;12.30;2.73;;;;;;;;;;5075241;28;20467;-85
2021/09/30 08:11:55;;;;;;;12.93;2.63;;;;;;;;;;5075096;28;20457;-85
2021/09/30 08:14:23;;;;;;;13.23;2.27;;;;;;;;;;5060949;28;20462;-85
2021/09/30 08:16:51;;;;;;;11.73;2.20;;;;;;;;;;5069565;28;20950;-85
2021/09/30 08:19:18;;;;;;;13.30;2.57;;;;;;;;;;5076172;28;20478;-85
2021/09/30 08:21:45;;;;;;;12.20;2.20;;;;;;;;;;5077605;28;20463;-85
2021/09/30 08:24:12;;;;;;;14.00;2.30;;;;;;;;;;5063519;28;20450;-84
2021/09/30 08:26:39;;;;;;;15.17;2.53;;;;;;;;;;5073993;28;20447;-85
2021/09/30 08:29:06;;;;;;;9.53;1.63;;;;;;;;;;5074233;28;20481;-85
2021/09/30 08:31:35;;;;;;;12.77;3.43;;;;;;;;;;5072550;28;20455;-88
2021/09/30 08:34:03;;;;;;;12.93;2.87;;;;;;;;;;5066526;28;20453;-86
2021/09/30 08:36:30;;;;;;;13.33;2.57;;;;;;;;;;5069585;28;20475;-86
2021/09/30 08:38:58;;;;;;;11.73;1.80;;;;;;;;;;5074443;28;20471;-84
2021/09/30 08:41:25;;;;;;;14.20;2.60;;;;;;;;;;5073242;28;20455;-85
2021/09/30 08:43:53;;;;;;;15.03;1.93;;;;;;;;;;5064733;28;20455;-85
2021/09/30 08:46:20;;;;;;;12.40;2.20;;;;;;;;;;5066896;28;20450;-85
2021/09/30 08:48:49;;;;;;;13.37;2.77;;;;;;;;;;5073536;28;20849;-85
2021/09/30 08:51:17;;;;;;;13.63;1.87;;;;;;;;;;5072276;28;20477;-86
2021/09/30 08:53:45;;;;;;;14.30;2.53;;;;;;;;;;5061571;28;20454;-85
2021/09/30 08:56:12;;;;;;;11.97;2.00;;;;;;;;;;5072418;28;20454;-85
2021/09/30 08:58:39;;;;;;;13.23;2.40;;;;;;;;;;5062728;28;20470;-86
2021/09/30 09:01:07;;;;;;;13.57;2.10;;;;;;;;;;5072849;28;20462;-85
2021/09/30 09:03:37;;;;;;;12.80;1.80;;;;;;;;;;5073168;28;20458;-87
2021/09/30 09:06:06;;;;;;;12.40;1.90;;;;;;;;;;5067694;28;20450;-86
2021/09/30 09:08:33;;;;;;;10.67;2.17;;;;;;;;;;5066209;28;20573;-86
2021/09/30 09:11:01;;;;;;;13.67;1.80;;;;;;;;;;5061907;28;20458;-86
2021/09/30 09:13:28;;;;;;;14.70;2.33;;;;;;;;;;5051419;28;20454;-87
2021/09/30 09:15:57;;;;;;;14.10;2.23;;;;;;;;;;5069754;28;20459;-86
2021/09/30 09:18:25;;;;;;;11.43;1.77;;;;;;;;;;5070792;28;20480;-86
2021/09/30 09:21:00;;;;;;;10.07;1.30;;;;;;;;;;5075128;28;20458;-86
2021/09/30 09:23:29;;;;;;;12.77;2.20;;;;;;;;;;5072008;28;20453;-87
2021/09/30 09:26:13;;;;;;;12.33;2.97;;;;;;;;;;5075349;28;20542;-86
2021/09/30 09:28:41;;;;;;;11.03;2.10;;;;;;;;;;5074634;28;20996;-87
2021/09/30 09:31:08;;;;;;;17.30;2.63;;;;;;;;;;5077528;28;20473;-86
2021/09/30 09:33:37;;;;;;;13.17;2.33;;;;;;;;;;5089342;28;20457;-83
2021/09/30 09:36:06;;;;;;;12.87;2.13;;;;;;;;;;5093813;28;20467;-83
2021/09/30 09:38:47;;;;;;;13.70;2.47;;;;;;;;;;5078747;28;20474;-83
2021/09/30 09:41:19;;;;;;;11.87;1.83;;;;;;;;;;5075004;28;20532;-83
2021/09/30 09:43:47;;;;;;;14.33;2.33;;;;;;;;;;5062197;28;20459;-84
2021/09/30 09:46:17;;;;;;;13.97;2.40;;;;;;;;;;5071913;28;20450;-83
2021/09/30 09:48:54;;;;;;;11.60;1.97;;;;;;;;;;5080462;28;20927;-84
2021/09/30 09:51:21;;;;;;;10.23;2.00;;;;;;;;;;5081960;28;20535;-83
2021/09/30 09:53:50;;;;;;;9.83;1.70;;;;;;;;;;5078525;28;20462;-84
2021/09/30 09:56:18;;;;;;;9.90;1.90;;;;;;;;;;5077437;28;20447;-83
2021/09/30 09:58:47;;;;;;;12.70;1.83;;;;;;;;;;5079351;28;20471;-84
2021/09/30 10:01:15;;;;;;;14.83;1.90;;;;;;;;;;5079843;28;20511;-84
2021/09/30 10:03:50;;;;;;;11.93;2.73;;;;;;;;;;5077337;28;20451;-84
2021/09/30 10:06:17;;;;;;;12.63;1.93;;;;;;;;;;5078917;28;20451;-84
2021/09/30 10:08:44;;;;;;;12.73;2.23;;;;;;;;;;5078473;28;20490;-83
2021/09/30 10:11:13;;;;;;;10.57;1.90;;;;;;;;;;5078929;28;20462;-83
2021/09/30 10:13:40;;;;;;;11.23;1.77;;;;;;;;;;5076497;28;20447;-84
2021/09/30 10:16:07;;;;;;;11.53;2.13;;;;;;;;;;5076657;28;20457;-83
2021/09/30 10:18:35;;;;;;;11.27;1.80;;;;;;;;;;5076957;28;20492;-84
2021/09/30 10:21:02;;;;;;;11.93;1.70;;;;;;;;;;5078366;28;20461;-84
2021/09/30 10:23:31;;;;;;;12.90;1.90;;;;;;;;;;5075571;28;20812;-84
2021/09/30 10:26:01;;;;;;;11.83;1.60;;;;;;;;;;5078282;28;20742;-84
2021/09/30 10:28:39;;;;;;;10.40;1.27;;;;;;;;;;5076952;28;20489;-83
2021/09/30 10:31:20;;;;;;;11.10;1.43;;;;;;;;;;5078114;28;20457;-83
2021/09/30 10:33:47;;;;;;;9.57;1.87;;;;;;;;;;5070951;28;20829;-83
2021/09/30 10:36:29;;;;;;;13.47;2.10;;;;;;;;;;5075641;28;20456;-83
2021/09/30 10:39:11;;;;;;;12.53;1.83;;;;;;;;;;5076964;28;20470;-82
2021/09/30 10:41:38;;;;;;;9.27;1.70;;;;;;;;;;5056845;28;20454;-83
2021/09/30 10:44:14;;;;;;;11.30;1.60;;;;;;;;;;5067960;28;20454;-83
2021/09/30 10:46:52;;;;;;;11.70;1.50;;;;;;;;;;5075657;28;20880;-84
2021/09/30 10:49:47;;;;;;;9.90;1.80;;;;;;;;;;5076182;28;20489;-82
2021/09/30 10:52:25;;;;;;;9.43;1.40;;;;;;;;;;5076802;28;20455;-81
2021/09/30 10:54:54;;;;;;;12.30;1.70;;;;;;;;;;5077864;28;20501;-83
2021/09/30 10:57:36;;;;;;;14.17;2.10;;;;;;;;;;5075977;28;20447;-83
2021/09/30 11:00:06;;;;;;;13.93;2.17;;;;;;;;;;5080492;28;20473;-84
2021/09/30 11:02:53;;;;;;;10.03;1.40;;;;;;;;;;5079532;28;20436;-83
2021/09/30 11:05:20;;;;;;;12.97;2.40;;;;;;;;;;5060626;28;20971;-84
2021/09/30 11:07:47;;;;;;;10.07;1.80;;;;;;;;;;5065376;28;20479;-84
2021/09/30 11:10:19;;;;;;;11.97;1.67;;;;;;;;;;5083409;28;20473;-84
2021/09/30 11:13:16;;;;;;;10.07;1.87;;;;;;;;;;5081883;28;20462;-84
2021/09/30 11:16:03;;;;;;;13.30;1.70;;;;;;;;;;4998509;28;20447;-83
2021/09/30 11:18:41;;;;;;;8.60;1.70;;;;;;;;;;5063005;28;20888;-84
2021/09/30 11:21:23;;;;;;;10.40;1.70;;;;;;;;;;5082646;28;20442;-84
2021/09/30 11:23:50;;;;;;;9.00;1.83;;;;;;;;;;5076570;28;21088;-84
2021/09/30 11:26:17;;;;;;;9.37;1.60;;;;;;;;;;5080768;28;20447;-83
2021/09/30 11:28:44;;;;;;;11.23;2.23;;;;;;;;;;5081921;28;20487;-84
2021/09/30 11:31:26;;;;;;;14.20;1.83;;;;;;;;;;5083129;28;20447;-84
2021/09/30 11:33:56;;;;;;;9.60;1.77;;;;;;;;;;5069833;28;20878;-84
2021/09/30 11:36:30;;;;;;;9.03;1.50;;;;;;;;;;5072842;28;20491;-83
2021/09/30 11:38:57;;;;;;;13.87;2.80;;;;;;;;;;5070859;28;20983;-84
2021/09/30 11:41:27;;;;;;;12.60;1.97;;;;;;;;;;5075425;28;20462;-85
2021/09/30 11:43:55;;;;;;;9.37;1.50;;;;;;;;;;5074644;28;20473;-85
2021/09/30 11:46:25;;;;;;;13.77;1.50;;;;;;;;;;5071426;28;20455;-86
2021/09/30 11:48:58;;;;;;;9.90;1.63;;;;;;;;;;5074016;28;20491;-85
2021/09/30 11:51:31;;;;;;;13.27;1.40;;;;;;;;;;5073336;28;20955;-85
2021/09/30 11:53:59;;;;;;;9.23;1.20;;;;;;;;;;5075199;28;20452;-85
2021/09/30 11:56:26;;;;;;;10.60;1.40;;;;;;;;;;5074545;28;20455;-84
2021/09/30 11:59:01;;;;;;;10.53;1.90;;;;;;;;;;5074074;28;20999;-85
2021/09/30 12:01:33;;;;;;;10.60;1.30;;;;;;;;;;5073910;28;20501;-84
2021/09/30 12:04:01;;;;;;;12.70;1.90;;;;;;;;;;5059495;28;20482;-84
2021/09/30 12:06:38;;;;;;;9.30;2.03;;;;;;;;;;5065985;28;20451;-85
2021/09/30 12:09:07;;;;;;;9.33;1.50;;;;;;;;;;5074076;28;20586;-85
2021/09/30 12:11:35;;;;;;;11.00;1.50;;;;;;;;;;5075122;28;20905;-85
2021/09/30 12:14:02;;;;;;;10.03;1.50;;;;;;;;;;5070954;28;20910;-85
2021/09/30 12:16:29;;;;;;;10.13;1.43;;;;;;;;;;5072659;28;20822;-84
2021/09/30 12:19:02;;;;;;;13.50;1.60;;;;;;;;;;5069044;28;20480;-85
2021/09/30 12:21:38;;;;;;;12.87;1.50;;;;;;;;;;5072695;28;20446;-84
2021/09/30 12:24:06;;;;;;;11.73;1.27;;;;;;;;;;5059353;28;20464;-85
2021/09/30 12:26:33;;;;;;;9.20;1.50;;;;;;;;;;5056867;28;20451;-84
2021/09/30 12:29:00;;;;;;;10.47;1.40;;;;;;;;;;5072581;28;20498;-85
2021/09/30 12:31:29;;;;;;;9.33;1.53;;;;;;;;;;5073016;28;20455;-87
2021/09/30 12:33:57;;;;;;;7.80;1.10;;;;;;;;;;5073090;28;20457;-85
2021/09/30 12:36:25;;;;;;;9.63;1.23;;;;;;;;;;5059805;28;20458;-84
2021/09/30 12:38:59;;;;;;;8.80;1.00;;;;;;;;;;5071381;28;20475;-86
2021/09/30 12:41:27;;;;;;;10.00;1.30;;;;;;;;;;5074605;28;20453;-83
2021/09/30 12:43:54;;;;;;;8.40;1.10;;;;;;;;;;5063339;28;20512;-85
2021/09/30 12:46:22;;;;;;;9.20;1.20;;;;;;;;;;5071099;28;20458;-85
2021/09/30 12:48:49;;;;;;;11.87;1.60;;;;;;;;;;5071419;28;21003;-83
2021/09/30 12:51:17;;;;;;;9.70;1.43;;;;;;;;;;5071100;28;20465;-82
2021/09/30 12:53:48;;;;;;;9.23;1.43;;;;;;;;;;5071042;28;20453;-82
2021/09/30 12:56:17;;;;;;;10.07;1.20;;;;;;;;;;5071626;28;20493;-84
2021/09/30 12:58:47;;;;;;;10.77;1.50;;;;;;;;;;5072606;28;20507;-84
2021/09/30 13:01:25;;;;;;;9.00;1.10;;;;;;;;;;5072228;28;20455;-83
2021/09/30 13:04:05;;;;;;;9.13;1.30;;;;;;;;;;5080901;28;20455;-83
2021/09/30 13:06:33;;;;;;;9.73;1.77;;;;;;;;;;5079931;28;20541;-84
2021/09/30 13:09:01;;;;;;;11.30;1.30;;;;;;;;;;5077736;28;20487;-83
2021/09/30 13:11:32;;;;;;;9.50;1.00;;;;;;;;;;5078394;28;20481;-85
2021/09/30 13:14:30;;;;;;;9.73;1.37;;;;;;;;;;5078435;28;20493;-83
2021/09/30 13:16:58;;;;;;;10.07;1.30;;;;;;;;;;4997323;28;21009;-84
2021/09/30 13:19:43;;;;;;;9.57;1.73;;;;;;;;;;5061588;28;20493;-85
2021/09/30 13:22:11;;;;;;;9.40;1.40;;;;;;;;;;5067122;28;20483;-84
2021/09/30 13:24:40;;;;;;;11.43;1.10;;;;;;;;;;5070809;28;20476;-84
2021/09/30 13:27:08;;;;;;;9.77;1.60;;;;;;;;;;5071314;28;20566;-85
2021/09/30 13:29:35;;;;;;;9.00;1.43;;;;;;;;;;5070274;28;20574;-85
2021/09/30 13:32:03;;;;;;;9.83;1.80;;;;;;;;;;5073144;28;20476;-85
2021/09/30 13:34:30;;;;;;;8.83;1.23;;;;;;;;;;5077570;28;20679;-85
2021/09/30 13:36:57;;;;;;;9.80;1.30;;;;;;;;;;5083607;28;20550;-85
2021/09/30 13:39:24;;;;;;;11.87;1.43;;;;;;;;;;5069151;28;20483;-86
2021/09/30 13:41:53;;;;;;;8.37;1.67;;;;;;;;;;5066760;28;20538;-84
2021/09/30 13:44:20;;;;;;;11.13;2.03;;;;;;;;;;5067047;28;20478;-84
2021/09/30 13:46:47;;;;;;;8.50;1.30;;;;;;;;;;5068619;28;20838;-85
2021/09/30 13:49:15;;;;;;;11.37;1.80;;;;;;;;;;5068391;28;20544;-85
2021/09/30 13:51:42;;;;;;;9.80;1.30;;;;;;;;;;5064987;28;20460;-85
2021/09/30 13:54:09;;;;;;;10.10;1.43;;;;;;;;;;5072174;28;20826;-86
2021/09/30 13:56:36;;;;;;;9.30;1.20;;;;;;;;;;5065026;28;20951;-85
2021/09/30 13:59:06;;;;;;;10.63;1.60;;;;;;;;;;5065281;28;20501;-85
2021/09/30 14:01:33;;;;;;;10.47;1.20;;;;;;;;;;5067618;28;20472;-85
2021/09/30 14:04:01;;;;;;;9.30;1.10;;;;;;;;;;5068276;28;20443;-85
2021/09/30 14:06:29;;;;;;;9.13;1.67;;;;;;;;;;5068270;28;20458;-85
2021/09/30 14:08:56;;;;;;;14.80;2.63;;;;;;;;;;5078868;28;21013;-84
2021/09/30 14:11:23;;;;;;;10.40;1.83;;;;;;;;;;5074887;28;20443;-85
2021/09/30 14:13:52;;;;;;;11.20;2.40;;;;;;;;;;5082736;28;20480;-86
2021/09/30 14:16:21;;;;;;;9.53;1.80;;;;;;;;;;5084194;28;20447;-85
2021/09/30 14:18:48;;;;;;;9.93;1.50;;;;;;;;;;5082455;28;20541;-85
2021/09/30 14:21:15;;;;;;;10.53;1.40;;;;;;;;;;5080225;28;20451;-85
2021/09/30 14:23:43;;;;;;;10.13;1.67;;;;;;;;;;5074706;28;20450;-85
2021/09/30 14:26:13;;;;;;;10.83;1.83;;;;;;;;;;5080295;28;20457;-85
2021/09/30 14:28:41;;;;;;;11.80;1.40;;;;;;;;;;5075765;28;20480;-86
2021/09/30 14:31:08;;;;;;;12.10;1.17;;;;;;;;;;5063601;28;20539;-86
2021/09/30 14:33:37;;;;;;;10.50;1.53;;;;;;;;;;5080136;28;20456;-85
2021/09/30 14:36:05;;;;;;;11.03;1.33;;;;;;;;;;5072451;28;20458;-86
2021/09/30 14:38:32;;;;;;;10.77;1.60;;;;;;;;;;5073980;28;20464;-84
2021/09/30 14:40:59;;;;;;;11.47;1.53;;;;;;;;;;5088341;28;20453;-84
2021/09/30 14:43:29;;;;;;;12.77;2.07;;;;;;;;;;5080514;28;20551;-84
2021/09/30 14:45:57;;;;;;;10.73;1.50;;;;;;;;;;5084192;28;20862;-84
2021/09/30 14:48:24;;;;;;;11.20;1.40;;;;;;;;;;5077489;28;20479;-85
2021/09/30 14:50:53;;;;;;;13.60;1.87;;;;;;;;;;5091835;28;20479;-85
2021/09/30 14:53:20;;;;;;;9.60;1.43;;;;;;;;;;5074879;28;20445;-84
2021/09/30 14:55:47;;;;;;;9.67;1.40;;;;;;;;;;5056051;28;20540;-85
2021/09/30 14:58:15;;;;;;;9.53;1.23;;;;;;;;;;5055343;28;20556;-85
2021/09/30 15:00:42;;;;;;;9.80;1.20;;;;;;;;;;5067614;28;20439;-85
2021/09/30 15:03:09;;;;;;;13.57;2.10;;;;;;;;;;5063454;28;20550;-85
2021/09/30 15:05:36;;;;;;;10.43;1.50;;;;;;;;;;5060324;28;20447;-85
2021/09/30 15:08:05;;;;;;;9.37;1.27;;;;;;;;;;5069158;28;20549;-86
2021/09/30 15:10:33;;;;;;;11.47;1.90;;;;;;;;;;5067247;28;20538;-85
2021/09/30 15:13:00;;;;;;;12.43;2.10;;;;;;;;;;5067791;28;20542;-85
2021/09/30 15:15:28;;;;;;;10.53;1.43;;;;;;;;;;5077169;28;20472;-86
2021/09/30 15:17:59;;;;;;;11.70;2.40;;;;;;;;;;5071525;28;20914;-86
2021/09/30 15:23:14;;;;;;;12.57;2.30;;;;;;;;;;5068432;28;20431;-86
2021/09/30 15:25:42;;;;;;;10.13;1.60;;;;;;;;;;5066746;28;20482;-86
2021/09/30 15:28:11;;;;;;;14.07;1.80;;;;;;;;;;5076433;28;20476;-86
2021/09/30 15:30:40;;;;;;;10.13;1.70;;;;;;;;;;5077256;28;20499;-85
2021/09/30 15:33:07;;;;;;;13.53;2.07;;;;;;;;;;5073589;28;20462;-86
2021/09/30 15:35:34;;;;;;;11.10;1.57;;;;;;;;;;5079469;28;20486;-86
2021/09/30 15:38:01;;;;;;;10.10;1.77;;;;;;;;;;5073027;28;20469;-86
2021/09/30 15:40:30;;;;;;;10.30;1.67;;;;;;;;;;5065808;28;20939;-85
2021/09/30 15:42:57;;;;;;;12.83;1.60;;;;;;;;;;5063676;28;20447;-85
2021/09/30 15:45:24;;;;;;;10.30;1.30;;;;;;;;;;5076161;28;20459;-85
2021/09/30 15:47:51;;;;;;;9.87;1.40;;;;;;;;;;5062240;28;20443;-85
2021/09/30 15:50:18;;;;;;;10.10;1.70;;;;;;;;;;5068003;28;20864;-86
2021/09/30 15:52:46;;;;;;;10.77;1.40;;;;;;;;;;5068823;28;20486;-85
2021/09/30 15:55:13;;;;;;;10.00;2.13;;;;;;;;;;5073778;28;20457;-87
2021/09/30 15:57:42;;;;;;;10.13;1.50;;;;;;;;;;5087407;28;20458;-85
2021/09/30 16:00:10;;;;;;;9.53;1.50;;;;;;;;;;5078126;28;20465;-86
2021/09/30 16:02:37;;;;;;;11.10;1.40;;;;;;;;;;5084374;28;20449;-85
2021/09/30 16:05:05;;;;;;;12.70;1.60;;;;;;;;;;5057596;28;20459;-86
2021/09/30 16:07:32;;;;;;;12.00;1.40;;;;;;;;;;5069381;28;20449;-85
2021/09/30 16:09:59;;;;;;;10.90;1.40;;;;;;;;;;5054170;28;20506;-85
2021/09/30 16:12:26;;;;;;;10.53;1.37;;;;;;;;;;5053307;28;20465;-86
2021/09/30 16:14:55;;;;;;;13.80;1.43;;;;;;;;;;5067084;28;20995;-85
2021/09/30 16:17:23;;;;;;;11.50;1.40;;;;;;;;;;5056312;28;20440;-85
2021/09/30 16:19:51;;;;;;;9.40;1.20;;;;;;;;;;5069658;28;20463;-85
2021/09/30 16:22:18;;;;;;;9.30;1.20;;;;;;;;;;5061779;28;20454;-85
2021/09/30 16:24:45;;;;;;;12.47;1.43;;;;;;;;;;5070769;28;20831;-85
2021/09/30 16:27:13;;;;;;;11.37;1.47;;;;;;;;;;5079472;28;20900;-85
2021/09/30 16:32:10;;;;;;;10.60;1.30;;;;;;;;;;5062562;28;20918;-84
2021/09/30 16:34:38;;;;;;;12.00;1.90;;;;;;;;;;5055138;28;20452;-82
2021/09/30 16:37:11;;;;;;;13.13;2.00;;;;;;;;;;5045209;28;20524;-82
2021/09/30 16:39:38;;;;;;;17.77;1.63;;;;;;;;;;5051698;28;20502;-83
2021/09/30 16:42:10;;;;;;;8.83;1.10;;;;;;;;;;5029098;28;20502;-79
2021/09/30 16:44:37;;;;;;;7.90;0.90;;;;;;;;;;5031946;28;20460;-79
2021/09/30 16:47:05;;;;;;;12.00;1.77;;;;;;;;;;5030696;28;20831;-82
2021/09/30 16:49:34;;;;;;;13.27;2.00;;;;;;;;;;5030066;28;20770;-82
2021/09/30 16:52:01;;;;;;;11.07;1.63;;;;;;;;;;5024759;28;20450;-83
2021/09/30 16:54:28;;;;;;;14.30;1.83;;;;;;;;;;5032092;28;20475;-84
2021/09/30 16:56:55;;;;;;;12.10;1.80;;;;;;;;;;5030614;28;20972;-82
2021/09/30 16:59:22;;;;;;;12.20;1.90;;;;;;;;;;5017602;28;20461;-84
2021/09/30 17:01:56;;;;;;;12.20;1.30;;;;;;;;;;5021381;28;20827;-83
2021/09/30 17:04:23;;;;;;;11.50;1.77;;;;;;;;;;5023990;28;20841;-85
2021/09/30 17:06:52;;;;;;;17.07;2.17;;;;;;;;;;5021339;28;20554;-85
2021/09/30 17:09:20;;;;;;;11.30;1.37;;;;;;;;;;5030344;28;20460;-84
2021/09/30 17:11:47;;;;;;;14.07;1.97;;;;;;;;;;5020769;28;20504;-84
2021/09/30 17:14:14;;;;;;;13.60;1.57;;;;;;;;;;5030117;28;21061;-84
2021/09/30 17:16:41;;;;;;;10.97;1.40;;;;;;;;;;5037117;28;20462;-85
2021/09/30 17:19:09;;;;;;;14.40;1.80;;;;;;;;;;5025190;28;20543;-85